PWSweather.com
Personal Weather Stations
Station Observations
KTXPLANO60
Highlands Of Russell Park, Plano, TX 75025

Highlands Of Russell ParkPlano, TX 75025

Lat: 33.10431671, Lon: -96.75176239

Elevation: 761

Station Type: Davis Wireless VP2 Plus

http://www.planoweather.com

Latest ConditionsUpdated 8:00:10 AM CST Saturday, Nov 22, 2014
Currently Today's Max Today's Min Today's Average
Temperature 57.7°F14.3°C 60.4°F15.8°C 57.6°F14.2°C 58.5°F14.7°C
Dew Point 56.6°F13.7°C 59.0°F15.0°C 56.5°F13.6°C 57.5°F14.2°C
Winds 7.5 mph SE12.1 kmh SE 11.9 mph SE19.2 kmh SE - 6.9 mph 11.1 kmh
Wind Gusts 12.0 mph19.3 kmh 22.0 mph35.4 kmh - -
Humidity 96% 97% 95% 96%
Pressure 30.00 in1015.9 mb 30.04 in1017.3 mb 29.99 in1015.6 mb -
Precipitation - 0.53 in13.5 mm - -
Hour Temp Dew Point Humidity Winds Wind Gusts Pressure Precip Precip Rate Daily Precip Total
08:00 AM 57.7°F14.3°C 56.6°F13.7°C 96% 7.5 mph SE12.1 kmh SE 12.0 mph19.3 kmh 30.00 in1015.9 mb 0.00 in0.0 mm 0.00 in/hr0.0 mm/hr 0.53 in13.5 mm
07:50 AM 57.7°F14.3°C 56.6°F13.7°C 96% 5.4 mph E8.7 kmh E 8.0 mph12.9 kmh 30.00 in1015.9 mb 0.00 in0.0 mm 0.00 in/hr0.0 mm/hr 0.53 in13.5 mm
07:40 AM 57.7°F14.3°C 56.6°F13.7°C 96% 5.9 mph SE9.5 kmh SE 7.0 mph11.3 kmh 29.99 in1015.6 mb 0.00 in0.0 mm 0.00 in/hr0.0 mm/hr 0.53 in13.5 mm
07:30 AM 57.7°F14.3°C 56.6°F13.7°C 96% 4.1 mph SE6.6 kmh SE 6.0 mph9.7 kmh 29.99 in1015.6 mb 0.00 in0.0 mm 0.00 in/hr0.0 mm/hr 0.53 in13.5 mm
07:20 AM 57.6°F14.2°C 56.5°F13.6°C 96% 5.5 mph SE8.9 kmh SE 9.0 mph14.5 kmh 29.99 in1015.6 mb 0.00 in0.0 mm 0.00 in/hr0.0 mm/hr 0.53 in13.5 mm
07:10 AM 57.6°F14.2°C 56.5°F13.6°C 96% 4.6 mph E7.4 kmh E 11.0 mph17.7 kmh 30.00 in1015.9 mb 0.00 in0.0 mm 0.00 in/hr0.0 mm/hr 0.53 in13.5 mm
07:00 AM 57.6°F14.2°C 56.8°F13.8°C 97% 6.9 mph SE11.1 kmh SE 13.0 mph20.9 kmh 30.00 in1015.9 mb 0.00 in0.0 mm 0.00 in/hr0.0 mm/hr 0.53 in13.5 mm
06:50 AM 57.7°F14.3°C 56.8°F13.8°C 97% 6.9 mph SE11.1 kmh SE 12.0 mph19.3 kmh 30.00 in1015.9 mb 0.00 in0.0 mm 0.00 in/hr0.0 mm/hr 0.53 in13.5 mm
06:40 AM 57.7°F14.3°C 56.9°F13.8°C 97% 3.8 mph ESE6.1 kmh ESE 11.0 mph17.7 kmh 30.00 in1015.9 mb 0.00 in0.0 mm 0.00 in/hr0.0 mm/hr 0.53 in13.5 mm
06:30 AM 57.8°F14.3°C 57.0°F13.9°C 97% 4.6 mph SSE7.4 kmh SSE 9.0 mph14.5 kmh 30.00 in1015.9 mb 0.00 in0.0 mm 0.00 in/hr0.0 mm/hr 0.53 in13.5 mm
06:20 AM 57.8°F14.3°C 57.0°F13.9°C 97% 6.6 mph SE10.6 kmh SE 12.0 mph19.3 kmh 30.00 in1015.9 mb 0.00 in0.0 mm 0.00 in/hr0.0 mm/hr 0.53 in13.5 mm
06:10 AM 57.9°F14.4°C 57.1°F13.9°C 97% 6.3 mph SE10.1 kmh SE 15.0 mph24.1 kmh 29.99 in1015.6 mb 0.00 in0.0 mm 0.00 in/hr0.0 mm/hr 0.53 in13.5 mm
06:00 AM 58.0°F14.4°C 57.2°F14.0°C 97% 6.6 mph SE10.6 kmh SE 9.0 mph14.5 kmh 29.99 in1015.6 mb 0.00 in0.0 mm 0.00 in/hr0.0 mm/hr 0.53 in13.5 mm
05:50 AM 58.0°F14.4°C 57.2°F14.0°C 97% 4.9 mph SE7.9 kmh SE 8.0 mph12.9 kmh 29.99 in1015.6 mb 0.00 in0.0 mm 0.00 in/hr0.0 mm/hr 0.53 in13.5 mm
05:40 AM 58.1°F14.5°C 57.2°F14.0°C 97% 6.3 mph SE10.1 kmh SE 9.0 mph14.5 kmh 29.99 in1015.6 mb 0.00 in0.0 mm 0.00 in/hr0.0 mm/hr 0.53 in13.5 mm
05:30 AM 58.0°F14.4°C 57.2°F14.0°C 97% 9.6 mph SE15.4 kmh SE 13.0 mph20.9 kmh 29.99 in1015.6 mb 0.00 in0.0 mm 0.00 in/hr0.0 mm/hr 0.53 in13.5 mm
05:20 AM 58.0°F14.4°C 57.2°F14.0°C 97% 7.5 mph SE12.1 kmh SE 12.0 mph19.3 kmh 29.99 in1015.6 mb 0.00 in0.0 mm 0.00 in/hr0.0 mm/hr 0.53 in13.5 mm
05:10 AM 58.1°F14.5°C 57.2°F14.0°C 97% 6.4 mph SE10.3 kmh SE 13.0 mph20.9 kmh 29.99 in1015.6 mb 0.00 in0.0 mm 0.00 in/hr0.0 mm/hr 0.53 in13.5 mm
05:00 AM 58.0°F14.4°C 57.2°F14.0°C 97% 9.8 mph SE15.8 kmh SE 17.0 mph27.4 kmh 29.99 in1015.6 mb 0.00 in0.0 mm 0.00 in/hr0.0 mm/hr 0.53 in13.5 mm
04:50 AM 58.1°F14.5°C 57.3°F14.1°C 97% 5.3 mph ESE8.5 kmh ESE 12.0 mph19.3 kmh 29.99 in1015.6 mb 0.00 in0.0 mm 0.00 in/hr0.0 mm/hr 0.53 in13.5 mm
04:40 AM 58.1°F14.5°C 57.3°F14.1°C 97% 7.6 mph ESE12.2 kmh ESE 14.0 mph22.5 kmh 30.00 in1015.9 mb 0.00 in0.0 mm 0.00 in/hr0.0 mm/hr 0.53 in13.5 mm
04:30 AM 58.1°F14.5°C 57.3°F14.1°C 97% 9.4 mph SE15.1 kmh SE 13.0 mph20.9 kmh 30.00 in1015.9 mb 0.00 in0.0 mm 0.00 in/hr0.0 mm/hr 0.53 in13.5 mm
04:20 AM 58.1°F14.5°C 57.3°F14.1°C 97% 8.2 mph SE13.2 kmh SE 9.0 mph14.5 kmh 30.00 in1015.9 mb 0.00 in0.0 mm 0.00 in/hr0.0 mm/hr 0.53 in13.5 mm
04:10 AM 58.2°F14.6°C 57.4°F14.1°C 97% 4.8 mph ESE7.7 kmh ESE 9.0 mph14.5 kmh 30.01 in1016.3 mb 0.00 in0.0 mm 0.00 in/hr0.0 mm/hr 0.53 in13.5 mm
04:00 AM 58.3°F14.6°C 57.4°F14.1°C 97% 5.1 mph ESE8.2 kmh ESE 9.0 mph14.5 kmh 30.01 in1016.3 mb 0.00 in0.0 mm 0.00 in/hr0.0 mm/hr 0.53 in13.5 mm
03:50 AM 58.3°F14.6°C 57.5°F14.2°C 97% 7.3 mph SE11.7 kmh SE 14.0 mph22.5 kmh 30.02 in1016.6 mb 0.01 in0.3 mm 0.06 in/hr1.5 mm/hr 0.53 in13.5 mm
03:40 AM 58.4°F14.7°C 57.6°F14.2°C 97% 5.6 mph ESE9.0 kmh ESE 9.0 mph14.5 kmh 30.02 in1016.6 mb 0.00 in0.0 mm 0.00 in/hr0.0 mm/hr 0.52 in13.2 mm
03:30 AM 58.4°F14.7°C 57.6°F14.2°C 97% 6.3 mph SE10.1 kmh SE 12.0 mph19.3 kmh 30.02 in1016.6 mb 0.00 in0.0 mm 0.00 in/hr0.0 mm/hr 0.52 in13.2 mm
03:20 AM 58.5°F14.7°C 57.7°F14.3°C 97% 9.6 mph SE15.4 kmh SE 19.0 mph30.6 kmh 30.02 in1016.6 mb 0.00 in0.0 mm 0.00 in/hr0.0 mm/hr 0.52 in13.2 mm
03:10 AM 58.5°F14.7°C 57.7°F14.3°C 97% 7.7 mph SE12.4 kmh SE 14.0 mph22.5 kmh 30.02 in1016.6 mb 0.00 in0.0 mm 0.00 in/hr0.0 mm/hr 0.52 in13.2 mm
03:00 AM 58.6°F14.8°C 57.7°F14.3°C 97% 5.8 mph SE9.3 kmh SE 14.0 mph22.5 kmh 30.02 in1016.6 mb 0.00 in0.0 mm 0.00 in/hr0.0 mm/hr 0.52 in13.2 mm
02:50 AM 58.6°F14.8°C 57.8°F14.3°C 97% 9.1 mph SE14.6 kmh SE 14.0 mph22.5 kmh 30.02 in1016.6 mb 0.00 in0.0 mm 0.00 in/hr0.0 mm/hr 0.52 in13.2 mm
02:40 AM 58.6°F14.8°C 57.4°F14.1°C 96% 4.5 mph SE7.2 kmh SE 8.0 mph12.9 kmh 30.02 in1016.6 mb 0.00 in0.0 mm 0.00 in/hr0.0 mm/hr 0.52 in13.2 mm
02:30 AM 58.6°F14.8°C 57.5°F14.2°C 96% 8.9 mph SE14.3 kmh SE 17.0 mph27.4 kmh 30.02 in1016.6 mb 0.00 in0.0 mm 0.00 in/hr0.0 mm/hr 0.52 in13.2 mm
02:20 AM 58.6°F14.8°C 57.5°F14.2°C 96% 4.2 mph SE6.8 kmh SE 8.0 mph12.9 kmh 30.02 in1016.6 mb 0.00 in0.0 mm 0.00 in/hr0.0 mm/hr 0.52 in13.2 mm
02:10 AM 58.7°F14.8°C 57.5°F14.2°C 96% 5.9 mph E9.5 kmh E 8.0 mph12.9 kmh 30.03 in1016.9 mb 0.00 in0.0 mm 0.00 in/hr0.0 mm/hr 0.52 in13.2 mm
02:00 AM 58.7°F14.8°C 57.6°F14.2°C 96% 7.6 mph SSE12.2 kmh SSE 12.0 mph19.3 kmh 30.03 in1016.9 mb 0.00 in0.0 mm 0.00 in/hr0.0 mm/hr 0.52 in13.2 mm
01:50 AM 58.7°F14.8°C 57.6°F14.2°C 96% 4.9 mph SE7.9 kmh SE 13.0 mph20.9 kmh 30.02 in1016.6 mb 0.00 in0.0 mm 0.00 in/hr0.0 mm/hr 0.52 in13.2 mm
01:40 AM 58.8°F14.9°C 57.7°F14.3°C 96% 6.6 mph SE10.6 kmh SE 19.0 mph30.6 kmh 30.02 in1016.6 mb 0.00 in0.0 mm 0.00 in/hr0.0 mm/hr 0.52 in13.2 mm
01:30 AM 59.0°F15.0°C 57.9°F14.4°C 96% 8.5 mph SE13.7 kmh SE 11.0 mph17.7 kmh 30.02 in1016.6 mb 0.00 in0.0 mm 0.00 in/hr0.0 mm/hr 0.52 in13.2 mm
01:20 AM 59.1°F15.1°C 58.0°F14.4°C 96% 6.9 mph ESE11.1 kmh ESE 11.0 mph17.7 kmh 30.02 in1016.6 mb 0.00 in0.0 mm 0.00 in/hr0.0 mm/hr 0.52 in13.2 mm
01:10 AM 59.2°F15.1°C 58.1°F14.5°C 96% 11.9 mph SE19.2 kmh SE 22.0 mph35.4 kmh 30.03 in1016.9 mb 0.06 in1.5 mm 0.36 in/hr9.1 mm/hr 0.52 in13.2 mm
01:00 AM 59.4°F15.2°C 58.3°F14.6°C 96% 10.6 mph ESE17.1 kmh ESE 18.0 mph29.0 kmh 30.03 in1016.9 mb 0.15 in3.8 mm 0.18 in/hr4.6 mm/hr 0.50 in12.7 mm
12:50 AM 59.6°F15.3°C 58.5°F14.7°C 96% 6.0 mph SE9.7 kmh SE 9.0 mph14.5 kmh 30.04 in1017.3 mb 0.20 in5.1 mm 1.20 in/hr30.5 mm/hr 0.36 in9.1 mm
12:40 AM 59.7°F15.4°C 58.6°F14.8°C 96% 8.8 mph SE14.2 kmh SE 14.0 mph22.5 kmh 30.04 in1017.3 mb 0.03 in0.8 mm 0.18 in/hr4.6 mm/hr 0.16 in4.1 mm
12:30 AM 60.0°F15.6°C 58.5°F14.7°C 95% 7.6 mph SSE12.2 kmh SSE 12.0 mph19.3 kmh 30.03 in1016.9 mb 0.12 in3.0 mm 0.72 in/hr18.3 mm/hr 0.13 in3.3 mm
12:20 AM 60.2°F15.7°C 58.8°F14.9°C 95% 8.7 mph ESE14.0 kmh ESE 15.0 mph24.1 kmh 30.04 in1017.3 mb 0.01 in0.3 mm 0.06 in/hr1.5 mm/hr 0.01 in0.3 mm
12:10 AM 60.3°F15.7°C 58.9°F14.9°C 95% 7.4 mph SE11.9 kmh SE 13.0 mph20.9 kmh 30.04 in1017.3 mb 0.00 in0.0 mm 0.00 in/hr0.0 mm/hr 0.00 in0.0 mm
12:00 AM 60.4°F15.8°C 59.0°F15.0°C 95% 6.8 mph SE10.9 kmh SE 18.0 mph29.0 kmh 30.04 in1017.3 mb 0.00 in0.0 mm 0.00 in/hr0.0 mm/hr 0.00 in0.0 mm